createdAt,value
2023-02-15T11:52:28.158Z,65.06958
2023-02-15T11:53:37.887Z,65.612793
2023-02-15T11:54:46.687Z,66.967773
2023-02-15T11:55:56.468Z,67.102051
2023-02-15T11:57:06.294Z,67.614746
2023-02-15T11:58:16.079Z,68.359375
2023-02-15T11:59:24.833Z,69.042969
2023-02-15T12:00:34.552Z,67.449951
2023-02-15T12:01:44.298Z,66.296387
2023-02-15T12:02:54.107Z,66.162109
2023-02-15T12:04:03.861Z,65.52124
2023-02-15T12:05:13.533Z,65.008545
2023-02-15T12:06:23.326Z,65.618896
2023-02-15T12:07:32.081Z,65.283203
2023-02-15T12:08:41.784Z,64.935303
2023-02-15T12:09:51.573Z,65.924072
2023-02-15T12:11:01.618Z,65.588379
2023-02-15T12:12:11.123Z,64.978027
2023-02-15T12:13:20.840Z,65.41748
2023-02-15T12:14:30.575Z,65.283203
2023-02-15T12:15:40.315Z,64.874268
2023-02-15T12:16:49.084Z,64.569092
2023-02-15T12:17:58.818Z,65.081787
2023-02-15T12:19:08.550Z,63.928223
2023-02-15T12:20:17.332Z,63.262939
2023-02-15T12:21:27.734Z,62.823486
2023-02-15T12:22:36.909Z,62.109375
2023-02-15T12:23:46.613Z,62.506104
2023-02-15T12:24:56.384Z,63.421631
2023-02-15T12:26:05.152Z,64.031982
2023-02-15T12:27:14.962Z,64.874268
2023-02-15T12:28:24.718Z,64.306641
2023-02-15T12:29:33.467Z,63.635254
2023-02-15T12:30:43.209Z,62.664795
2023-02-15T12:31:53.036Z,61.315918
2023-02-15T12:33:02.711Z,61.108398
2023-02-15T12:34:11.439Z,61.486816
2023-02-15T12:35:21.182Z,60.577393
2023-02-15T12:36:30.920Z,61.547852
2023-02-15T12:37:39.761Z,63.098145
2023-02-15T12:38:48.444Z,62.969971
2023-02-15T12:39:57.195Z,62.084961
2023-02-15T12:41:06.898Z,63.800049
2023-02-15T12:42:16.704Z,64.611816
2023-02-15T12:43:26.466Z,64.788818
2023-02-15T12:44:36.226Z,64.178467
2023-02-15T12:45:45.933Z,64.178467
2023-02-15T12:46:55.690Z,64.685059
2023-02-15T12:48:05.429Z,64.318848
2023-02-15T12:49:20.366Z,62.738037
2023-02-15T12:50:25.853Z,61.993408
2023-02-15T12:51:36.594Z,61.254883
2023-02-15T12:52:47.566Z,60.418701
2023-02-15T12:53:57.281Z,60.418701
2023-02-15T12:55:07.054Z,59.70459
2023-02-15T12:56:16.839Z,59.881592
2023-02-15T12:57:27.599Z,58.813477
2023-02-15T12:58:37.326Z,58.355713
2023-02-15T12:59:47.054Z,58.355713
2023-02-15T13:00:56.792Z,57.543945
2023-02-15T13:02:05.572Z,58.123779
2023-02-15T13:03:15.283Z,58.1604
2023-02-15T13:04:25.012Z,60.040283
2023-02-15T13:05:34.924Z,61.71875
2023-02-15T13:06:43.693Z,62.634277
2023-02-15T13:07:53.500Z,61.761475
2023-02-15T13:09:03.211Z,60.546875
2023-02-15T13:10:12.938Z,61.010742
2023-02-15T13:11:21.689Z,62.286377
2023-02-15T13:12:31.574Z,63.537598
2023-02-15T13:13:41.273Z,63.879395
2023-02-15T13:14:51.101Z,62.298584
2023-02-15T13:16:00.914Z,61.157227
2023-02-15T13:17:10.703Z,61.38916
2023-02-15T13:18:20.441Z,62.432861
2023-02-15T13:19:30.155Z,63.812256
2023-02-15T13:20:37.881Z,64.086914
2023-02-15T13:21:47.661Z,63.549805
2023-02-15T13:22:57.498Z,63.140869
2023-02-15T13:24:07.302Z,63.85498
2023-02-15T13:25:17.014Z,64.520264
2023-02-15T13:26:26.799Z,64.697266
2023-02-15T13:27:36.608Z,63.983154
2023-02-15T13:28:46.415Z,63.317871
2023-02-15T13:29:56.144Z,62.298584
2023-02-15T13:31:06.041Z,62.60376
2023-02-15T13:32:15.731Z,63.317871
2023-02-15T13:33:25.395Z,63.244629
2023-02-15T13:34:34.154Z,64.654541
2023-02-15T13:35:42.979Z,65.802002
2023-02-15T13:36:52.736Z,65.936279
2023-02-15T13:38:02.525Z,66.986084
2023-02-15T13:39:12.231Z,67.523193
2023-02-15T13:40:20.996Z,68.133545
2023-02-15T13:41:30.750Z,68.035889
2023-02-15T13:42:40.489Z,68.133545
2023-02-15T13:43:50.224Z,69.116211
2023-02-15T13:44:59.958Z,69.421387
2023-02-15T13:46:09.786Z,70.172119
2023-02-15T13:47:19.468Z,70.269775
2023-02-15T13:48:37.017Z,70.172119
2023-02-15T13:49:40.017Z,70.477295
2023-02-15T13:50:49.732Z,70.477295
2023-02-15T13:51:58.484Z,70.269775
2023-02-15T13:53:08.340Z,71.5271
2023-02-15T13:54:18.111Z,71.325684
2023-02-15T13:55:27.843Z,71.630859
2023-02-15T13:56:37.558Z,71.765137
2023-02-15T13:57:47.318Z,71.868896
2023-02-15T13:58:57.041Z,71.734619
2023-02-15T14:00:06.821Z,71.429443
2023-02-15T14:01:15.671Z,71.429443
2023-02-15T14:02:25.303Z,71.258545
2023-02-15T14:03:35.114Z,69.934082
2023-02-15T14:04:44.886Z,70.477295
2023-02-15T14:05:54.724Z,70.782471
2023-02-15T14:07:04.487Z,71.630859
2023-02-15T14:08:14.283Z,71.5271
2023-02-15T14:09:23.982Z,71.429443
2023-02-15T14:10:34.880Z,71.087646
2023-02-15T14:11:43.506Z,70.782471
2023-02-15T14:12:53.272Z,71.66748
2023-02-15T14:14:02.981Z,72.174072
2023-02-15T14:15:12.725Z,72.717285
2023-02-15T14:16:21.587Z,73.266602
2023-02-15T14:17:32.295Z,73.809814
2023-02-15T14:18:41.078Z,74.560547
2023-02-15T14:19:50.983Z,75.311279
2023-02-15T14:21:00.640Z,75.482178
2023-02-15T14:22:11.604Z,74.969482
2023-02-15T14:23:20.173Z,74.865723
2023-02-15T14:24:30.479Z,75.415039
2023-02-15T14:25:38.634Z,75.683594
2023-02-15T14:26:48.383Z,75.274658
2023-02-15T14:27:57.146Z,75.378418
2023-02-15T14:29:06.920Z,75.311279
2023-02-15T14:30:16.750Z,75.823975
2023-02-15T14:31:26.596Z,75.927734
2023-02-15T14:32:36.298Z,76.12915
2023-02-15T14:33:46.122Z,76.367188
2023-02-15T14:34:55.907Z,76.782227
2023-02-15T14:36:05.698Z,77.325439
2023-02-15T14:37:14.502Z,77.227783
2023-02-15T14:38:24.402Z,77.734375
2023-02-15T14:39:34.179Z,77.941895
2023-02-15T14:40:44.018Z,78.082275
2023-02-15T14:41:53.748Z,79.003906
2023-02-15T14:43:03.675Z,78.662109
2023-02-15T14:44:12.493Z,77.703857
2023-02-15T14:45:22.317Z,76.983643
2023-02-15T14:46:32.240Z,77.838135
2023-02-15T14:47:41.009Z,78.527832
2023-02-15T14:48:50.950Z,79.382324
2023-02-15T14:49:59.754Z,80.206299
2023-02-15T14:51:09.572Z,80.102539
2023-02-15T14:52:18.313Z,80.310059
2023-02-15T14:53:27.137Z,80.822754
2023-02-15T14:54:36.833Z,80.169678
2023-02-15T14:55:46.576Z,79.754639
2023-02-15T14:56:56.289Z,79.998779
2023-02-15T14:58:06.000Z,80.102539
2023-02-15T14:59:15.834Z,80.407715
2023-02-15T15:00:32.782Z,80.511475
2023-02-15T15:01:41.552Z,80.651855
2023-02-15T15:02:51.248Z,81.201172
2023-02-15T15:04:01.030Z,81.781006
2023-02-15T15:05:14.393Z,81.12793
2023-02-15T15:06:23.104Z,80.206299
2023-02-15T15:07:32.804Z,80.407715
2023-02-15T15:08:42.628Z,80.963135
2023-02-15T15:09:52.307Z,81.304932
2023-02-15T15:11:02.043Z,81.512451
2023-02-15T15:12:12.789Z,82.061768
2023-02-15T15:13:22.561Z,82.714844
2023-02-15T15:14:30.336Z,82.922363
2023-02-15T15:15:40.603Z,82.818604
2023-02-15T15:16:50.025Z,83.026123
2023-02-15T15:18:10.670Z,83.477783
2023-02-15T15:19:20.599Z,84.47876
2023-02-15T15:20:30.435Z,85.095215
2023-02-15T15:21:39.237Z,85.198975
2023-02-15T15:22:47.967Z,85.302734
2023-02-15T15:23:57.809Z,85.71167
2023-02-15T15:25:07.576Z,85.546875
2023-02-15T15:26:17.525Z,86.05957
2023-02-15T15:27:26.238Z,86.413574
2023-02-15T15:28:35.987Z,86.82251
2023-02-15T15:29:45.783Z,86.61499
2023-02-15T15:30:54.785Z,86.82251
2023-02-15T15:32:03.601Z,87.27417
2023-02-15T15:33:13.258Z,87.585449
2023-02-15T15:34:22.974Z,87.994385
2023-02-15T15:35:32.712Z,88.348389
2023-02-15T15:36:42.500Z,88.452148
2023-02-15T15:37:52.239Z,88.903809
2023-02-15T15:39:03.290Z,89.215088
2023-02-15T15:40:12.824Z,89.666748
2023-02-15T15:41:22.619Z,89.874268
2023-02-15T15:42:32.411Z,90.185547
2023-02-15T15:43:42.169Z,90.325928
2023-02-15T15:44:51.937Z,90.637207
2023-02-15T15:46:02.095Z,90.844727
2023-02-15T15:47:11.475Z,91.19873
2023-02-15T15:48:21.253Z,91.503906
2023-02-15T15:49:31.051Z,92.06543
2023-02-15T15:50:39.888Z,92.376709
2023-02-15T15:51:49.646Z,92.626953
2023-02-15T15:52:58.445Z,92.828369
2023-02-15T15:54:07.368Z,93.182373
2023-02-15T15:55:16.049Z,93.493652
2023-02-15T15:56:25.825Z,93.743896
2023-02-15T15:57:35.717Z,94.158936
2023-02-15T15:58:44.516Z,94.616699
2023-02-15T15:59:54.311Z,95.031738
2023-02-15T16:01:04.246Z,95.281982
2023-02-15T16:02:12.957Z,95.697021
2023-02-15T16:03:22.736Z,96.209717
2023-02-15T16:04:32.511Z,96.673584
2023-02-15T16:05:41.265Z,96.984863
2023-02-15T16:06:51.078Z,97.088623
2023-02-15T16:08:00.797Z,97.290039
2023-02-15T16:09:12.010Z,97.546387
2023-02-15T16:10:20.426Z,97.961426
2023-02-15T16:11:30.313Z,98.065186
2023-02-15T16:12:40.075Z,98.10791
2023-02-15T16:13:49.954Z,98.31543
2023-02-15T16:14:59.741Z,98.522949
2023-02-15T16:16:09.644Z,98.834229
2023-02-15T16:17:19.380Z,99.041748
2023-02-15T16:18:29.121Z,99.145508
2023-02-15T16:19:37.972Z,99.249268
2023-02-15T16:20:46.729Z,99.206543
2023-02-15T16:21:56.580Z,98.999023
2023-02-15T16:23:06.428Z,98.895264
2023-02-15T16:24:16.418Z,98.791504
2023-02-15T16:25:26.446Z,98.687744
2023-02-15T16:26:36.385Z,98.687744
2023-02-15T16:27:46.231Z,98.583984
2023-02-15T16:28:55.953Z,98.626709
2023-02-15T16:30:05.879Z,98.730469
2023-02-15T16:31:15.761Z,98.834229
2023-02-15T16:32:25.457Z,98.937988
2023-02-15T16:33:35.286Z,99.194336
2023-02-15T16:34:45.129Z,99.505615
2023-02-15T16:35:54.945Z,99.6521
2023-02-15T16:37:04.713Z,99.859619
2023-02-15T16:38:15.432Z,99.993896
2023-02-15T16:39:25.253Z,99.993896
2023-02-15T16:40:35.123Z,99.993896
2023-02-15T16:41:43.950Z,99.993896
2023-02-15T16:42:52.801Z,99.993896
2023-02-15T16:44:02.552Z,99.993896
2023-02-15T16:45:12.390Z,99.993896
2023-02-15T16:46:22.223Z,99.993896
2023-02-15T16:47:29.944Z,99.993896
2023-02-15T16:48:39.714Z,99.993896
2023-02-15T16:49:49.647Z,99.993896
2023-02-15T16:50:58.432Z,99.993896
2023-02-15T16:52:07.202Z,99.993896
2023-02-15T16:53:16.136Z,99.993896
2023-02-15T16:54:25.879Z,99.993896
2023-02-15T16:55:35.886Z,99.993896
2023-02-15T16:56:45.578Z,99.993896
2023-02-15T16:57:55.397Z,99.993896
2023-02-15T16:59:05.182Z,99.993896
2023-02-15T17:00:15.030Z,99.993896
2023-02-15T17:01:24.930Z,99.993896
2023-02-15T17:02:54.852Z,99.993896
2023-02-15T17:03:45.330Z,99.993896
2023-02-15T17:04:55.173Z,99.993896
2023-02-15T17:06:05.224Z,99.993896
2023-02-15T17:07:13.994Z,99.993896
2023-02-15T17:08:23.746Z,99.993896
2023-02-15T17:09:33.538Z,99.993896
2023-02-15T17:10:43.340Z,99.993896
2023-02-15T17:11:53.044Z,99.993896
2023-02-15T17:13:03.050Z,99.993896
2023-02-15T17:14:12.795Z,99.993896
2023-02-15T17:15:22.542Z,99.993896
2023-02-15T17:16:32.364Z,99.993896
2023-02-15T17:17:42.137Z,99.993896
2023-02-15T17:18:50.848Z,99.993896
2023-02-15T17:20:00.671Z,99.993896
2023-02-15T17:21:10.375Z,99.993896
2023-02-15T17:22:20.119Z,99.993896
2023-02-15T17:23:29.857Z,99.993896
2023-02-15T17:24:39.963Z,99.993896
2023-02-15T17:25:48.982Z,99.993896
2023-02-15T17:26:58.693Z,99.993896
2023-02-15T17:28:08.522Z,99.993896
2023-02-15T17:29:18.195Z,99.993896
2023-02-15T17:30:28.012Z,99.993896
2023-02-15T17:31:37.836Z,99.993896
2023-02-15T17:32:47.505Z,99.993896
2023-02-15T17:33:56.234Z,99.993896
2023-02-15T17:35:05.987Z,99.993896
2023-02-15T17:36:15.791Z,99.993896
2023-02-15T17:37:24.585Z,99.993896
2023-02-15T17:38:34.311Z,99.993896
2023-02-15T17:39:43.045Z,99.993896
2023-02-15T17:40:52.929Z,99.993896
2023-02-15T17:42:02.565Z,99.993896
2023-02-15T17:43:12.342Z,99.993896
2023-02-15T17:44:20.081Z,99.993896
2023-02-15T17:45:30.001Z,99.993896
2023-02-15T17:46:38.864Z,99.993896
2023-02-15T17:47:48.619Z,99.993896
2023-02-15T17:48:57.347Z,99.993896
2023-02-15T17:50:07.160Z,99.993896
2023-02-15T17:51:16.944Z,99.993896
2023-02-15T17:52:26.665Z,99.993896
2023-02-15T17:53:35.495Z,99.993896
2023-02-15T17:54:45.223Z,99.993896
2023-02-15T17:55:55.020Z,99.993896
2023-02-15T17:57:05.106Z,99.993896
2023-02-15T17:58:13.853Z,99.993896
2023-02-15T17:59:23.735Z,99.993896
2023-02-15T18:00:33.645Z,99.993896
2023-02-15T18:01:43.470Z,99.993896
2023-02-15T18:02:53.213Z,99.993896
2023-02-15T18:04:03.161Z,99.993896
2023-02-15T18:05:10.869Z,99.993896
2023-02-15T18:06:20.665Z,99.993896
2023-02-15T18:07:29.393Z,99.993896
2023-02-15T18:08:39.107Z,99.993896
2023-02-15T18:09:48.948Z,99.993896
2023-02-15T18:10:58.678Z,99.993896
2023-02-15T18:12:08.397Z,99.993896
2023-02-15T18:13:17.411Z,99.993896
2023-02-15T18:14:27.144Z,99.993896
2023-02-15T18:15:36.895Z,99.993896
2023-02-15T18:16:45.886Z,99.993896
2023-02-15T18:17:54.408Z,99.993896
2023-02-15T18:19:04.166Z,99.993896
2023-02-15T18:20:14.136Z,99.993896
2023-02-15T18:21:24.043Z,99.993896
2023-02-15T18:22:34.067Z,99.993896
2023-02-15T18:23:42.819Z,99.993896
2023-02-15T18:24:52.640Z,99.993896
2023-02-15T18:26:01.419Z,99.993896
2023-02-15T18:27:10.148Z,99.993896
2023-02-15T18:28:18.908Z,99.993896
2023-02-15T18:29:27.785Z,99.993896
2023-02-15T18:30:37.648Z,99.993896
2023-02-15T18:31:46.487Z,99.993896
2023-02-15T18:32:55.077Z,99.993896
2023-02-15T18:34:04.902Z,99.993896
2023-02-15T18:35:13.701Z,99.993896
2023-02-15T18:36:23.461Z,99.993896
2023-02-15T18:37:33.281Z,99.993896
2023-02-15T18:38:43.051Z,99.993896
2023-02-15T18:39:52.776Z,99.993896
2023-02-15T18:41:00.800Z,99.993896
2023-02-15T18:42:10.315Z,99.993896
2023-02-15T18:43:20.110Z,99.993896
2023-02-15T18:44:29.884Z,99.993896
2023-02-15T18:45:39.661Z,99.993896
2023-02-15T18:46:48.480Z,99.993896
2023-02-15T18:47:57.337Z,99.993896
2023-02-15T18:49:07.134Z,99.993896
2023-02-15T18:50:16.905Z,99.993896
2023-02-15T18:51:26.873Z,99.993896
2023-02-15T18:52:36.702Z,99.993896
2023-02-15T18:53:46.453Z,99.993896
2023-02-15T18:54:56.168Z,99.993896
2023-02-15T18:56:04.889Z,99.993896
2023-02-15T18:57:14.689Z,99.993896
2023-02-15T18:58:24.443Z,99.993896
2023-02-15T18:59:33.197Z,99.993896
2023-02-15T19:00:42.999Z,99.993896
2023-02-15T19:01:52.791Z,99.993896
2023-02-15T19:03:02.656Z,99.993896
2023-02-15T19:04:12.403Z,99.993896
2023-02-15T19:05:21.403Z,99.993896
2023-02-15T19:06:30.186Z,99.993896
2023-02-15T19:07:40.040Z,99.993896
2023-02-15T19:08:48.785Z,99.993896
2023-02-15T19:09:57.465Z,99.993896
2023-02-15T19:11:07.206Z,99.993896
2023-02-15T19:12:16.973Z,99.993896
2023-02-15T19:13:26.872Z,99.993896
2023-02-15T19:14:36.625Z,99.993896
2023-02-15T19:15:46.369Z,99.993896
2023-02-15T19:16:56.205Z,99.993896
2023-02-15T19:18:04.911Z,99.993896
2023-02-15T19:19:12.707Z,99.993896
2023-02-15T19:20:22.496Z,99.993896
2023-02-15T19:21:32.262Z,99.993896
2023-02-15T19:22:40.955Z,99.993896
2023-02-15T19:23:50.662Z,99.993896
2023-02-15T19:25:00.362Z,99.993896
2023-02-15T19:26:10.078Z,99.993896
2023-02-15T19:27:18.829Z,99.993896
2023-02-15T19:28:27.508Z,99.993896
2023-02-15T19:29:37.202Z,99.993896
2023-02-15T19:30:46.906Z,99.993896
2023-02-15T19:31:56.648Z,99.993896
2023-02-15T19:33:05.261Z,99.993896
2023-02-15T19:34:14.960Z,99.993896
2023-02-15T19:35:24.672Z,99.993896
2023-02-15T19:36:33.331Z,99.993896
2023-02-15T19:37:43.068Z,99.993896
2023-02-15T19:38:52.758Z,99.993896
2023-02-15T19:40:01.419Z,99.993896
2023-02-15T19:41:11.156Z,99.993896
2023-02-15T19:42:20.878Z,99.993896
2023-02-15T19:43:30.590Z,99.993896
2023-02-15T19:44:40.335Z,99.993896
2023-02-15T19:45:50.014Z,99.993896
2023-02-15T19:46:58.724Z,99.993896
2023-02-15T19:48:08.462Z,99.993896
2023-02-15T19:49:18.131Z,99.993896
2023-02-15T19:50:27.052Z,99.993896
2023-02-15T19:51:34.718Z,99.993896
2023-02-15T19:52:44.458Z,99.993896
2023-02-15T19:53:54.137Z,99.993896
2023-02-15T19:55:01.827Z,99.993896
2023-02-15T19:56:10.515Z,99.993896
2023-02-15T19:57:20.270Z,99.993896
2023-02-15T19:58:28.982Z,99.993896
2023-02-15T19:59:38.716Z,99.993896
2023-02-15T20:00:48.469Z,99.993896
2023-02-15T20:01:58.152Z,99.993896
2023-02-15T20:03:07.884Z,99.993896
2023-02-15T20:04:17.639Z,99.993896
2023-02-15T20:05:27.288Z,99.993896
2023-02-15T20:06:36.064Z,99.993896
2023-02-15T20:07:44.784Z,99.993896
2023-02-15T20:08:54.673Z,99.993896
2023-02-15T20:10:04.410Z,99.993896
2023-02-15T20:11:13.148Z,99.993896
2023-02-15T20:12:22.831Z,99.993896
2023-02-15T20:13:32.571Z,99.993896
2023-02-15T20:14:42.256Z,99.993896
2023-02-15T20:15:49.983Z,99.993896
2023-02-15T20:16:57.737Z,99.993896
2023-02-15T20:18:07.454Z,99.993896
2023-02-15T20:19:17.140Z,99.993896
2023-02-15T20:20:27.878Z,99.993896
2023-02-15T20:21:37.567Z,99.993896
2023-02-15T20:22:47.268Z,99.993896
2023-02-15T20:23:57.083Z,99.993896
2023-02-15T20:25:05.766Z,99.993896
2023-02-15T20:26:14.472Z,99.993896
2023-02-15T20:27:24.226Z,99.993896
2023-02-15T20:28:31.918Z,99.993896
2023-02-15T20:29:40.639Z,99.993896
2023-02-15T20:30:49.371Z,99.993896
2023-02-15T20:31:59.487Z,99.993896
2023-02-15T20:33:09.400Z,99.993896
2023-02-15T20:34:18.014Z,99.993896
2023-02-15T20:35:27.711Z,99.993896
2023-02-15T20:36:37.418Z,99.993896
2023-02-15T20:37:46.110Z,99.993896
2023-02-15T20:38:54.865Z,99.993896
2023-02-15T20:40:03.585Z,99.993896
2023-02-15T20:41:11.251Z,99.993896
2023-02-15T20:42:20.954Z,99.993896
2023-02-15T20:43:30.764Z,99.993896
2023-02-15T20:44:39.455Z,99.993896
2023-02-15T20:45:49.117Z,99.993896
2023-02-15T20:46:58.820Z,99.993896
2023-02-15T20:48:07.588Z,99.993896
2023-02-15T20:49:17.431Z,99.993896
2023-02-15T20:50:27.006Z,99.993896
2023-02-15T20:51:36.668Z,99.993896
2023-02-15T20:52:45.340Z,99.993896
2023-02-15T20:53:53.115Z,99.993896
2023-02-15T20:55:02.807Z,99.993896
2023-02-15T20:56:11.521Z,99.993896
2023-02-15T20:57:20.245Z,99.993896
2023-02-15T20:58:29.042Z,99.993896
2023-02-15T20:59:38.781Z,99.993896
2023-02-15T21:00:48.481Z,99.993896
2023-02-15T21:01:56.281Z,99.993896
2023-02-15T21:03:05.005Z,99.993896
2023-02-15T21:04:14.772Z,99.993896
2023-02-15T21:05:24.573Z,99.993896
2023-02-15T21:06:34.268Z,99.993896
2023-02-15T21:07:44.987Z,99.993896
2023-02-15T21:08:54.723Z,99.993896
2023-02-15T21:10:04.440Z,99.993896
2023-02-15T21:11:14.216Z,99.993896
2023-02-15T21:12:24.009Z,99.993896
2023-02-15T21:13:33.744Z,99.993896
2023-02-15T21:14:43.459Z,99.993896
2023-02-15T21:15:52.129Z,99.993896
2023-02-15T21:17:00.777Z,99.993896
2023-02-15T21:18:10.463Z,99.993896
2023-02-15T21:19:20.194Z,99.993896
2023-02-15T21:20:29.943Z,99.993896
2023-02-15T21:21:37.557Z,99.993896
2023-02-15T21:22:47.260Z,99.993896
2023-02-15T21:23:57.079Z,99.993896
2023-02-15T21:25:06.768Z,99.993896
2023-02-15T21:26:16.786Z,99.993896
2023-02-15T21:27:24.190Z,99.993896
2023-02-15T21:28:33.863Z,99.993896
2023-02-15T21:29:41.625Z,99.993896
2023-02-15T21:30:50.626Z,99.993896
2023-02-15T21:32:00.602Z,99.993896
2023-02-15T21:33:10.140Z,99.993896
2023-02-15T21:34:19.856Z,99.993896
2023-02-15T21:35:28.636Z,99.993896
2023-02-15T21:36:37.311Z,99.993896
2023-02-15T21:37:46.947Z,99.993896
2023-02-15T21:38:55.658Z,99.993896
2023-02-15T21:40:04.404Z,99.993896
2023-02-15T21:41:14.170Z,99.993896
2023-02-15T21:42:23.913Z,99.993896
2023-02-15T21:43:33.653Z,99.993896
2023-02-15T21:44:42.456Z,99.993896
2023-02-15T21:45:52.235Z,99.993896
2023-02-15T21:47:01.939Z,99.993896
2023-02-15T21:48:10.724Z,99.993896
2023-02-15T21:49:20.445Z,99.993896
2023-02-15T21:50:30.204Z,99.993896
2023-02-15T21:51:40.009Z,99.993896
2023-02-15T21:52:49.726Z,99.993896
2023-02-15T21:53:58.434Z,99.993896
2023-02-15T21:55:08.225Z,99.993896
2023-02-15T21:56:18.001Z,99.993896
2023-02-15T21:57:27.713Z,99.993896
2023-02-15T21:58:37.472Z,99.993896
2023-02-15T21:59:47.313Z,99.993896
2023-02-15T22:00:56.133Z,99.993896
2023-02-15T22:02:05.776Z,99.993896
2023-02-15T22:03:15.543Z,99.993896
2023-02-15T22:04:25.308Z,99.993896
2023-02-15T22:05:34.066Z,99.993896
2023-02-15T22:06:43.810Z,99.993896
2023-02-15T22:07:53.657Z,99.993896
2023-02-15T22:09:03.687Z,99.993896
2023-02-15T22:10:12.452Z,99.993896
2023-02-15T22:11:22.166Z,99.993896
2023-02-15T22:12:30.894Z,99.993896
2023-02-15T22:13:39.656Z,99.993896
2023-02-15T22:14:49.451Z,99.993896
2023-02-15T22:15:59.307Z,99.993896
2023-02-15T22:17:09.063Z,99.993896
2023-02-15T22:18:18.808Z,99.993896
2023-02-15T22:19:27.579Z,99.993896
2023-02-15T22:20:37.413Z,99.993896
2023-02-15T22:21:47.169Z,99.993896
2023-02-15T22:22:55.914Z,99.993896
2023-02-15T22:24:05.596Z,99.993896
2023-02-15T22:25:14.265Z,99.993896
2023-02-15T22:26:23.961Z,99.993896
2023-02-15T22:27:32.637Z,99.993896
2023-02-15T22:28:42.298Z,99.993896
2023-02-15T22:29:52.062Z,99.993896
2023-02-15T22:31:00.900Z,99.993896
2023-02-15T22:32:09.545Z,99.993896
2023-02-15T22:33:19.019Z,99.993896
2023-02-15T22:34:27.719Z,99.993896
2023-02-15T22:35:37.442Z,99.993896
2023-02-15T22:36:46.154Z,99.993896
2023-02-15T22:37:53.900Z,99.993896
2023-02-15T22:39:03.569Z,99.993896
2023-02-15T22:40:12.311Z,99.993896
2023-02-15T22:41:21.045Z,99.993896
2023-02-15T22:42:29.806Z,99.993896
2023-02-15T22:43:39.549Z,99.993896
2023-02-15T22:44:49.402Z,99.993896
2023-02-15T22:45:58.451Z,99.993896
2023-02-15T22:47:07.475Z,99.993896
2023-02-15T22:48:17.303Z,99.993896
2023-02-15T22:49:26.206Z,99.993896
2023-02-15T22:50:37.828Z,99.993896
2023-02-15T22:51:45.832Z,99.993896
2023-02-15T22:52:55.637Z,99.993896
2023-02-15T22:54:05.345Z,99.993896
2023-02-15T22:55:14.979Z,99.993896
2023-02-15T22:56:23.288Z,99.993896
2023-02-15T22:57:32.350Z,99.993896
2023-02-15T22:58:41.980Z,99.993896
2023-02-15T22:59:50.637Z,99.993896
2023-02-15T23:00:59.469Z,99.993896
2023-02-15T23:02:08.204Z,99.993896
2023-02-15T23:03:17.934Z,99.993896
2023-02-15T23:04:27.817Z,99.993896
2023-02-15T23:05:37.605Z,99.993896
2023-02-15T23:06:47.270Z,99.993896
2023-02-15T23:07:57.371Z,99.993896
2023-02-15T23:09:07.432Z,99.993896
2023-02-15T23:10:17.153Z,99.993896
2023-02-15T23:11:26.924Z,99.993896
2023-02-15T23:12:36.707Z,99.993896
2023-02-15T23:13:47.422Z,99.993896
2023-02-15T23:14:57.139Z,99.993896
2023-02-15T23:16:06.978Z,99.993896
2023-02-15T23:17:16.701Z,99.993896
2023-02-15T23:18:26.446Z,99.993896
2023-02-15T23:19:36.168Z,99.993896
2023-02-15T23:20:45.948Z,99.993896
2023-02-15T23:21:55.680Z,99.993896
2023-02-15T23:23:05.462Z,99.993896
2023-02-15T23:24:15.209Z,99.993896
2023-02-15T23:25:25.214Z,99.993896
2023-02-15T23:26:35.082Z,99.993896
2023-02-15T23:27:44.803Z,99.993896
2023-02-15T23:28:54.582Z,99.993896
2023-02-15T23:30:03.294Z,99.993896
2023-02-15T23:31:13.094Z,99.993896
2023-02-15T23:32:22.873Z,99.993896
2023-02-15T23:33:31.580Z,99.993896
2023-02-15T23:34:41.390Z,99.993896
2023-02-15T23:35:52.126Z,99.993896
2023-02-15T23:37:01.962Z,99.993896
2023-02-15T23:38:11.764Z,99.993896
2023-02-15T23:39:21.592Z,99.993896
2023-02-15T23:41:20.883Z,99.993896
2023-02-15T23:42:30.532Z,99.993896
2023-02-15T23:43:39.197Z,99.993896
2023-02-15T23:44:48.881Z,99.993896
2023-02-15T23:45:58.584Z,99.993896
2023-02-15T23:47:07.198Z,99.993896
2023-02-15T23:48:16.882Z,99.993896
2023-02-15T23:49:25.584Z,99.993896
2023-02-15T23:50:34.309Z,99.993896
2023-02-15T23:51:44.098Z,99.993896
2023-02-15T23:52:53.820Z,99.993896
2023-02-15T23:54:02.557Z,99.993896
2023-02-15T23:55:12.297Z,99.993896
2023-02-15T23:56:22.061Z,99.993896
2023-02-15T23:57:31.776Z,99.993896
2023-02-15T23:58:41.525Z,99.993896
2023-02-15T23:59:50.193Z,99.993896
